Time;durP1;ratioP1;P1;durP2;ratioP2;P2;SDS_P1;SDS_P2;PMS_P1;PMS_P2;Temp;Humidity;BMP_temperature;BMP_pressure;BME280_temperature;BME280_humidity;BME280_pressure;Samples;Min_cycle;Max_cycle;Signal;HPM_P1;HPM_P2
2021/01/11 00:01:22;;;;;;;12.40;8.55;;;;;;;;;;5094692;28;20031;-74
2021/01/11 00:03:48;;;;;;;14.98;8.45;;;;;;;;;;5095916;28;20650;-74
2021/01/11 00:06:13;;;;;;;12.52;7.93;;;;;;;;;;5094809;28;20119;-74
2021/01/11 00:08:38;;;;;;;15.60;9.43;;;;;;;;;;5095756;28;20051;-74
2021/01/11 00:11:04;;;;;;;23.20;11.75;;;;;;;;;;5095649;28;20028;-74
2021/01/11 00:13:29;;;;;;;19.17;11.88;;;;;;;;;;5094964;28;20097;-74
2021/01/11 00:15:54;;;;;;;20.17;12.13;;;;;;;;;;5095623;28;20062;-74
2021/01/11 00:18:20;;;;;;;17.38;11.48;;;;;;;;;;5094565;28;20084;-74
2021/01/11 00:20:45;;;;;;;17.17;10.02;;;;;;;;;;5095774;28;20513;-74
2021/01/11 00:23:11;;;;;;;13.45;9.05;;;;;;;;;;5095450;28;20039;-74
2021/01/11 00:25:36;;;;;;;16.67;8.35;;;;;;;;;;5095922;28;20036;-74
2021/01/11 00:28:01;;;;;;;10.10;6.78;;;;;;;;;;5094525;28;20040;-74
2021/01/11 00:30:27;;;;;;;11.88;7.40;;;;;;;;;;5096209;28;20122;-74
2021/01/11 00:32:52;;;;;;;12.50;7.45;;;;;;;;;;5096109;28;20074;-74
2021/01/11 00:35:17;;;;;;;11.00;6.68;;;;;;;;;;5096245;28;20448;-74
2021/01/11 00:37:42;;;;;;;12.48;6.03;;;;;;;;;;5096043;28;20032;-74
2021/01/11 00:40:08;;;;;;;11.70;7.00;;;;;;;;;;5095817;28;20040;-74
2021/01/11 00:42:35;;;;;;;9.32;6.38;;;;;;;;;;5095655;28;20040;-74
2021/01/11 00:45:03;;;;;;;10.75;6.40;;;;;;;;;;5094724;28;20367;-74
2021/01/11 00:47:28;;;;;;;9.95;6.28;;;;;;;;;;5095733;28;20036;-74
2021/01/11 00:49:53;;;;;;;10.07;6.70;;;;;;;;;;5096483;28;20112;-74
2021/01/11 00:52:19;;;;;;;9.93;5.93;;;;;;;;;;5077946;28;20058;-74
2021/01/11 00:54:44;;;;;;;9.40;5.53;;;;;;;;;;5077758;28;20530;-74
2021/01/11 00:57:15;;;;;;;10.13;6.78;;;;;;;;;;5094942;28;20035;-74
2021/01/11 00:59:45;;;;;;;8.85;5.47;;;;;;;;;;5094717;28;20047;-74
2021/01/11 01:02:15;;;;;;;9.00;5.82;;;;;;;;;;5094956;28;20035;-74
2021/01/11 01:04:40;;;;;;;8.68;5.45;;;;;;;;;;5096306;28;20040;-74
2021/01/11 01:07:06;;;;;;;7.07;4.40;;;;;;;;;;5096007;28;20044;-74
2021/01/11 01:09:31;;;;;;;6.05;4.18;;;;;;;;;;5095836;28;20044;-74
2021/01/11 01:11:56;;;;;;;12.20;5.30;;;;;;;;;;5095684;28;20537;-74
2021/01/11 01:14:22;;;;;;;9.68;4.70;;;;;;;;;;5096170;28;20075;-74
2021/01/11 01:16:47;;;;;;;9.40;5.25;;;;;;;;;;5094298;28;20028;-74
2021/01/11 01:19:12;;;;;;;7.07;4.55;;;;;;;;;;5096041;28;20036;-74
2021/01/11 01:21:38;;;;;;;7.05;4.35;;;;;;;;;;5096109;28;20066;-74
2021/01/11 01:24:03;;;;;;;8.68;4.60;;;;;;;;;;5096472;28;20024;-74
2021/01/11 01:26:29;;;;;;;6.60;4.43;;;;;;;;;;5095621;28;20474;-74
2021/01/11 01:28:54;;;;;;;9.15;4.40;;;;;;;;;;5096029;28;20032;-74
2021/01/11 01:31:19;;;;;;;8.75;4.55;;;;;;;;;;5094579;28;20032;-74
2021/01/11 01:33:45;;;;;;;7.88;4.47;;;;;;;;;;5095846;28;20032;-74
2021/01/11 01:36:10;;;;;;;8.15;4.50;;;;;;;;;;5096134;28;20036;-75
2021/01/11 01:38:36;;;;;;;10.13;5.38;;;;;;;;;;5094783;28;20124;-74
2021/01/11 01:41:01;;;;;;;7.13;4.70;;;;;;;;;;5095889;28;20056;-74
2021/01/11 01:43:26;;;;;;;12.20;6.05;;;;;;;;;;5095763;28;20123;-75
2021/01/11 01:45:52;;;;;;;10.65;4.80;;;;;;;;;;5095181;28;20059;-74
2021/01/11 01:48:17;;;;;;;6.97;4.10;;;;;;;;;;5096009;28;20035;-74
2021/01/11 01:50:43;;;;;;;7.07;4.70;;;;;;;;;;5095772;28;20027;-74
2021/01/11 01:53:08;;;;;;;8.27;5.43;;;;;;;;;;5095417;28;20504;-74
2021/01/11 01:55:37;;;;;;;9.20;4.95;;;;;;;;;;5095357;28;20032;-74
2021/01/11 01:58:05;;;;;;;8.50;5.65;;;;;;;;;;5095402;28;20032;-74
2021/01/11 02:00:31;;;;;;;9.07;5.18;;;;;;;;;;5095697;28;20036;-74
2021/01/11 02:02:56;;;;;;;8.90;5.25;;;;;;;;;;5095348;28;20092;-74
2021/01/11 02:05:24;;;;;;;9.90;5.90;;;;;;;;;;5095305;28;20059;-74
2021/01/11 02:08:04;;;;;;;12.75;6.40;;;;;;;;;;5095423;28;20078;-74
2021/01/11 02:10:52;;;;;;;9.15;5.78;;;;;;;;;;5094004;28;20074;-74
2021/01/11 02:13:30;;;;;;;13.75;5.75;;;;;;;;;;5095665;28;20032;-74
2021/01/11 02:16:15;;;;;;;8.77;5.93;;;;;;;;;;5095825;28;20040;-74
2021/01/11 02:19:05;;;;;;;9.85;5.82;;;;;;;;;;5095108;28;20055;-74
2021/01/11 02:21:46;;;;;;;8.93;5.43;;;;;;;;;;5095488;28;20089;-74
2021/01/11 02:24:14;;;;;;;10.98;6.38;;;;;;;;;;5094629;28;20032;-74
2021/01/11 02:26:51;;;;;;;8.57;6.20;;;;;;;;;;5093657;28;20054;-74
2021/01/11 02:29:29;;;;;;;10.20;6.00;;;;;;;;;;5096987;28;20060;-74
2021/01/11 02:31:56;;;;;;;14.77;7.60;;;;;;;;;;5099178;28;20027;-74
2021/01/11 02:34:23;;;;;;;12.60;6.80;;;;;;;;;;5099463;28;20028;-74
2021/01/11 02:36:50;;;;;;;10.75;6.57;;;;;;;;;;5098192;28;20063;-74
2021/01/11 02:39:16;;;;;;;16.20;7.70;;;;;;;;;;5099085;28;20040;-74
2021/01/11 02:41:41;;;;;;;11.98;6.97;;;;;;;;;;5098838;28;20044;-74
2021/01/11 02:44:06;;;;;;;14.82;7.40;;;;;;;;;;5097807;28;20047;-74
2021/01/11 02:46:32;;;;;;;13.20;8.60;;;;;;;;;;5099534;28;20039;-74
2021/01/11 02:49:01;;;;;;;14.93;8.05;;;;;;;;;;5099067;28;20036;-74
2021/01/11 02:51:49;;;;;;;16.90;9.05;;;;;;;;;;5099711;28;20044;-74
2021/01/11 02:54:22;;;;;;;17.13;10.65;;;;;;;;;;5099256;28;20045;-74
2021/01/11 02:56:54;;;;;;;16.88;8.70;;;;;;;;;;5098101;28;20085;-75
2021/01/11 02:59:29;;;;;;;18.83;9.70;;;;;;;;;;5098598;28;20043;-75
2021/01/11 03:02:15;;;;;;;17.75;9.73;;;;;;;;;;5099227;28;20531;-75
2021/01/11 03:04:41;;;;;;;16.25;8.90;;;;;;;;;;5098921;28;20032;-74
2021/01/11 03:07:08;;;;;;;16.45;9.38;;;;;;;;;;5099105;28;20032;-75
2021/01/11 03:09:37;;;;;;;18.90;10.23;;;;;;;;;;5097564;28;20127;-75
2021/01/11 03:12:03;;;;;;;17.10;10.15;;;;;;;;;;5096246;28;20500;-72
2021/01/11 03:14:28;;;;;;;22.50;11.05;;;;;;;;;;5096105;28;20071;-74
2021/01/11 03:16:54;;;;;;;20.30;10.52;;;;;;;;;;5095523;28;20123;-74
2021/01/11 03:19:19;;;;;;;15.80;9.77;;;;;;;;;;5094352;28;20047;-74
2021/01/11 03:21:45;;;;;;;15.77;8.80;;;;;;;;;;5096134;28;20045;-74
2021/01/11 03:24:13;;;;;;;18.90;10.25;;;;;;;;;;5096753;28;20050;-74
2021/01/11 03:26:38;;;;;;;16.20;8.65;;;;;;;;;;5095876;28;20067;-75
2021/01/11 03:29:04;;;;;;;14.05;7.90;;;;;;;;;;5096693;28;20090;-74
2021/01/11 03:31:30;;;;;;;16.65;8.15;;;;;;;;;;5096343;28;20039;-73
2021/01/11 03:33:55;;;;;;;12.43;7.25;;;;;;;;;;5096661;28;20491;-73
2021/01/11 03:36:20;;;;;;;11.07;6.90;;;;;;;;;;5096788;28;20158;-73
2021/01/11 03:38:46;;;;;;;11.32;7.15;;;;;;;;;;5096511;28;20480;-74
2021/01/11 03:41:12;;;;;;;9.63;6.35;;;;;;;;;;5094592;28;20032;-73
2021/01/11 03:43:39;;;;;;;11.57;7.13;;;;;;;;;;5096135;28;20067;-74
2021/01/11 03:46:06;;;;;;;14.13;7.72;;;;;;;;;;5096280;28;20031;-75
2021/01/11 03:48:32;;;;;;;11.00;7.75;;;;;;;;;;5096104;28;20047;-75
2021/01/11 03:50:57;;;;;;;13.80;8.52;;;;;;;;;;5096066;28;20032;-75
2021/01/11 03:53:22;;;;;;;15.57;8.60;;;;;;;;;;5095759;28;20495;-75
2021/01/11 03:55:48;;;;;;;13.40;7.30;;;;;;;;;;5095881;28;20035;-76
2021/01/11 03:58:13;;;;;;;15.63;8.40;;;;;;;;;;5095534;28;20032;-76
2021/01/11 04:00:38;;;;;;;12.65;7.53;;;;;;;;;;5095667;28;20071;-73
2021/01/11 04:03:04;;;;;;;15.20;9.02;;;;;;;;;;5094613;28;20130;-73
2021/01/11 04:05:30;;;;;;;15.25;9.63;;;;;;;;;;5095841;28;20115;-73
2021/01/11 04:07:56;;;;;;;18.27;8.88;;;;;;;;;;5095687;28;20470;-72
2021/01/11 04:10:21;;;;;;;15.90;9.00;;;;;;;;;;5095523;28;20036;-72
2021/01/11 04:12:46;;;;;;;16.80;9.95;;;;;;;;;;5095354;28;20374;-72
2021/01/11 04:15:13;;;;;;;18.80;10.15;;;;;;;;;;5095622;28;20035;-73
2021/01/11 04:17:38;;;;;;;12.40;8.18;;;;;;;;;;5095156;28;20036;-72
2021/01/11 04:20:05;;;;;;;16.52;9.52;;;;;;;;;;5095376;28;20398;-73
2021/01/11 04:22:30;;;;;;;17.70;10.68;;;;;;;;;;5094067;28;20396;-72
2021/01/11 04:24:55;;;;;;;15.35;9.13;;;;;;;;;;5095151;28;20039;-72
2021/01/11 04:27:22;;;;;;;18.23;9.15;;;;;;;;;;5094997;28;20036;-73
2021/01/11 04:29:48;;;;;;;17.42;9.35;;;;;;;;;;5094933;28;20468;-72
2021/01/11 04:32:13;;;;;;;13.48;8.82;;;;;;;;;;5095233;28;20063;-73
2021/01/11 04:34:38;;;;;;;17.20;8.95;;;;;;;;;;5095061;28;20457;-72
2021/01/11 04:37:07;;;;;;;14.57;9.23;;;;;;;;;;5093897;28;20039;-72
2021/01/11 04:39:34;;;;;;;16.10;8.85;;;;;;;;;;5095274;28;20028;-72
2021/01/11 04:42:01;;;;;;;14.60;9.10;;;;;;;;;;5094038;28;20071;-72
2021/01/11 04:44:26;;;;;;;16.30;7.60;;;;;;;;;;5094647;28;20520;-72
2021/01/11 04:46:52;;;;;;;14.65;8.18;;;;;;;;;;5094825;28;20075;-72
2021/01/11 04:49:17;;;;;;;14.00;8.75;;;;;;;;;;5094791;28;20028;-72
2021/01/11 04:51:43;;;;;;;15.02;8.38;;;;;;;;;;5094313;28;20074;-72
2021/01/11 04:54:09;;;;;;;14.68;8.27;;;;;;;;;;5094743;28;20040;-72
2021/01/11 04:56:39;;;;;;;12.07;8.10;;;;;;;;;;5094569;28;20047;-72
2021/01/11 04:59:07;;;;;;;14.10;7.40;;;;;;;;;;5094458;28;20068;-73
2021/01/11 05:01:32;;;;;;;13.68;8.07;;;;;;;;;;5093597;28;20457;-72
2021/01/11 05:04:02;;;;;;;12.40;8.25;;;;;;;;;;5094697;28;20062;-72
2021/01/11 05:06:28;;;;;;;13.40;7.88;;;;;;;;;;5094627;28;20040;-72
2021/01/11 05:09:08;;;;;;;13.98;8.63;;;;;;;;;;5094499;28;20032;-72
2021/01/11 05:11:34;;;;;;;16.13;8.70;;;;;;;;;;5094099;28;20031;-72
2021/01/11 05:14:00;;;;;;;15.25;8.20;;;;;;;;;;5094361;28;20093;-72
2021/01/11 05:16:25;;;;;;;14.30;8.82;;;;;;;;;;5094486;28;20031;-72
2021/01/11 05:18:54;;;;;;;13.98;8.15;;;;;;;;;;5093149;28;20043;-72
2021/01/11 05:21:38;;;;;;;18.02;9.98;;;;;;;;;;5094115;28;20488;-72
2021/01/11 05:24:26;;;;;;;13.52;8.63;;;;;;;;;;5094247;28;20024;-72
2021/01/11 05:26:52;;;;;;;16.08;8.30;;;;;;;;;;5079562;28;20044;-72
2021/01/11 05:29:18;;;;;;;17.13;9.60;;;;;;;;;;5094011;28;20031;-72
2021/01/11 05:31:58;;;;;;;16.52;9.23;;;;;;;;;;5094230;28;20492;-72
2021/01/11 05:34:43;;;;;;;16.13;9.60;;;;;;;;;;5093809;28;20039;-72
2021/01/11 05:37:08;;;;;;;15.90;9.15;;;;;;;;;;5094145;28;20036;-72
2021/01/11 05:39:34;;;;;;;12.27;8.45;;;;;;;;;;5093944;28;20043;-72
2021/01/11 05:41:59;;;;;;;13.85;9.15;;;;;;;;;;5093872;28;20032;-72
2021/01/11 05:44:24;;;;;;;19.77;9.63;;;;;;;;;;5093767;28;20040;-72
2021/01/11 05:46:50;;;;;;;13.18;8.93;;;;;;;;;;5093794;28;20040;-72
2021/01/11 05:49:16;;;;;;;13.73;8.60;;;;;;;;;;5093445;28;20067;-72
2021/01/11 05:51:41;;;;;;;16.45;9.15;;;;;;;;;;5093821;28;20062;-72
2021/01/11 05:54:23;;;;;;;16.98;9.70;;;;;;;;;;5093561;28;20040;-72
2021/01/11 05:56:58;;;;;;;16.17;9.63;;;;;;;;;;5093553;28;20093;-72
2021/01/11 05:59:24;;;;;;;16.73;9.75;;;;;;;;;;5092265;28;20123;-76
2021/01/11 06:01:50;;;;;;;14.98;9.30;;;;;;;;;;5093579;28;20040;-75
2021/01/11 06:04:15;;;;;;;13.88;8.85;;;;;;;;;;5092805;28;20038;-74
2021/01/11 06:06:41;;;;;;;17.13;8.93;;;;;;;;;;5092290;28;20066;-74
2021/01/11 06:09:07;;;;;;;14.32;9.20;;;;;;;;;;5093516;28;20466;-74
2021/01/11 06:11:36;;;;;;;14.73;8.80;;;;;;;;;;5093171;28;20088;-73
2021/01/11 06:14:02;;;;;;;14.70;8.85;;;;;;;;;;5093277;28;20032;-74
2021/01/11 06:16:30;;;;;;;13.68;8.57;;;;;;;;;;5093642;28;20054;-74
2021/01/11 06:18:56;;;;;;;14.95;9.40;;;;;;;;;;5093260;28;20043;-74
2021/01/11 06:21:22;;;;;;;16.63;9.68;;;;;;;;;;5093045;28;20032;-75
2021/01/11 06:23:48;;;;;;;15.60;9.95;;;;;;;;;;5093429;28;20043;-74
2021/01/11 06:26:32;;;;;;;15.45;9.55;;;;;;;;;;5092966;28;20050;-72
2021/01/11 06:28:58;;;;;;;15.68;9.70;;;;;;;;;;5093247;28;20028;-73
2021/01/11 06:31:28;;;;;;;15.77;9.80;;;;;;;;;;5093433;28;20039;-73
2021/01/11 06:33:53;;;;;;;15.70;9.63;;;;;;;;;;5093307;28;20028;-72
2021/01/11 06:36:20;;;;;;;17.02;9.10;;;;;;;;;;5093160;28;20036;-72
2021/01/11 06:38:47;;;;;;;14.43;8.93;;;;;;;;;;5092127;28;20398;-72
2021/01/11 06:41:16;;;;;;;15.98;9.80;;;;;;;;;;5092879;28;20071;-73
2021/01/11 06:43:42;;;;;;;15.02;9.27;;;;;;;;;;5093045;28;20048;-72
2021/01/11 06:46:10;;;;;;;16.02;9.88;;;;;;;;;;5093208;28;20035;-72
2021/01/11 06:48:36;;;;;;;13.15;8.98;;;;;;;;;;5091749;28;20074;-72
2021/01/11 06:51:10;;;;;;;14.75;9.50;;;;;;;;;;5092904;28;20090;-72
2021/01/11 06:53:36;;;;;;;15.82;8.85;;;;;;;;;;5092637;28;20068;-72
2021/01/11 06:56:10;;;;;;;20.60;10.85;;;;;;;;;;5091746;28;20500;-72
2021/01/11 06:58:37;;;;;;;15.82;10.30;;;;;;;;;;5091248;28;20557;-72
2021/01/11 07:01:05;;;;;;;16.98;9.82;;;;;;;;;;5093040;28;20105;-72
2021/01/11 07:03:41;;;;;;;14.20;8.88;;;;;;;;;;5092802;28;20126;-72
2021/01/11 07:06:37;;;;;;;17.63;10.25;;;;;;;;;;5074771;28;20036;-72
2021/01/11 07:09:06;;;;;;;18.00;10.55;;;;;;;;;;5092973;28;20036;-72
2021/01/11 07:11:33;;;;;;;16.02;9.85;;;;;;;;;;5092843;28;20085;-72
2021/01/11 07:13:59;;;;;;;14.77;9.70;;;;;;;;;;5092942;28;20040;-72
2021/01/11 07:16:39;;;;;;;16.98;9.30;;;;;;;;;;5096482;28;20517;-71
2021/01/11 07:19:05;;;;;;;17.23;10.05;;;;;;;;;;5096579;28;20466;-72
2021/01/11 07:21:30;;;;;;;15.25;9.82;;;;;;;;;;5096502;28;20089;-74
2021/01/11 07:23:59;;;;;;;18.48;10.45;;;;;;;;;;5096590;28;20036;-73
2021/01/11 07:26:26;;;;;;;15.63;10.57;;;;;;;;;;5096270;28;20432;-72
2021/01/11 07:29:00;;;;;;;17.55;11.00;;;;;;;;;;5096537;28;20453;-72
2021/01/11 07:31:34;;;;;;;17.83;10.50;;;;;;;;;;5096113;28;20035;-72
2021/01/11 07:34:06;;;;;;;19.52;10.60;;;;;;;;;;5096487;28;20071;-73
2021/01/11 07:36:37;;;;;;;16.00;9.98;;;;;;;;;;5094559;28;20032;-72
2021/01/11 07:39:12;;;;;;;15.55;9.73;;;;;;;;;;5093826;28;20032;-72
2021/01/11 07:41:39;;;;;;;14.55;8.88;;;;;;;;;;5095944;28;20032;-74
2021/01/11 07:44:25;;;;;;;15.68;9.60;;;;;;;;;;5096096;28;20048;-74
2021/01/11 07:47:00;;;;;;;14.93;9.23;;;;;;;;;;5094839;28;20036;-74
2021/01/11 07:49:27;;;;;;;16.60;9.93;;;;;;;;;;5096062;28;20122;-74
2021/01/11 07:51:54;;;;;;;14.07;9.45;;;;;;;;;;5092300;28;20032;-74
2021/01/11 07:54:21;;;;;;;16.75;9.93;;;;;;;;;;5089741;28;20032;-73
2021/01/11 07:56:49;;;;;;;15.68;9.60;;;;;;;;;;5093966;28;20035;-74
2021/01/11 07:59:14;;;;;;;19.02;11.32;;;;;;;;;;5077244;28;20036;-75
2021/01/11 08:01:42;;;;;;;16.73;11.38;;;;;;;;;;5095566;28;20023;-74
2021/01/11 08:04:10;;;;;;;17.13;10.35;;;;;;;;;;5095494;28;20043;-74
2021/01/11 08:06:53;;;;;;;19.77;9.70;;;;;;;;;;5094826;28;20040;-74
2021/01/11 08:09:21;;;;;;;16.45;9.15;;;;;;;;;;5094203;28;20040;-75
2021/01/11 08:11:47;;;;;;;17.40;10.05;;;;;;;;;;5095065;28;20362;-75
2021/01/11 08:14:13;;;;;;;25.20;13.55;;;;;;;;;;5095703;28;20046;-75
2021/01/11 08:16:41;;;;;;;22.00;13.73;;;;;;;;;;5095532;28;20040;-75
2021/01/11 08:19:07;;;;;;;20.77;11.38;;;;;;;;;;5094943;28;20043;-74
2021/01/11 08:21:33;;;;;;;19.08;10.93;;;;;;;;;;5095440;28;20032;-76
2021/01/11 08:24:04;;;;;;;37.70;19.42;;;;;;;;;;5095846;28;20513;-77
2021/01/11 08:26:33;;;;;;;35.83;21.20;;;;;;;;;;5095146;28;20044;-77
2021/01/11 08:28:59;;;;;;;24.50;14.90;;;;;;;;;;5095594;28;20032;-77
2021/01/11 08:31:25;;;;;;;21.05;13.32;;;;;;;;;;5095667;28;20123;-77
2021/01/11 08:33:51;;;;;;;17.70;10.93;;;;;;;;;;5095031;28;20469;-75
2021/01/11 08:36:18;;;;;;;16.38;9.95;;;;;;;;;;5094773;28;20074;-77
2021/01/11 08:39:08;;;;;;;15.50;9.65;;;;;;;;;;5093476;28;20100;-74
2021/01/11 08:41:37;;;;;;;15.75;10.57;;;;;;;;;;5095097;28;20100;-75
2021/01/11 08:44:03;;;;;;;17.00;10.40;;;;;;;;;;5095307;28;20485;-75
2021/01/11 08:46:51;;;;;;;18.15;10.18;;;;;;;;;;5094907;28;20036;-76
2021/01/11 08:49:16;;;;;;;16.15;10.85;;;;;;;;;;5095092;28;20035;-74
2021/01/11 08:51:42;;;;;;;18.85;10.45;;;;;;;;;;5094546;28;20036;-75
2021/01/11 08:54:07;;;;;;;16.25;10.10;;;;;;;;;;5093570;28;20032;-77
2021/01/11 08:56:35;;;;;;;16.02;9.63;;;;;;;;;;5092916;28;20375;-74
2021/01/11 08:59:01;;;;;;;14.05;9.57;;;;;;;;;;5094228;28;20032;-74
2021/01/11 09:01:34;;;;;;;17.23;10.00;;;;;;;;;;5094260;28;20051;-75
2021/01/11 09:03:59;;;;;;;18.13;10.10;;;;;;;;;;5094223;28;20040;-77
2021/01/11 09:06:45;;;;;;;21.77;11.25;;;;;;;;;;5094509;28;20032;-76
2021/01/11 09:09:13;;;;;;;17.27;11.03;;;;;;;;;;5092887;28;20036;-75
2021/01/11 09:11:40;;;;;;;19.23;11.77;;;;;;;;;;5094086;28;20895;-76
2021/01/11 09:14:06;;;;;;;18.42;11.20;;;;;;;;;;5094446;28;20122;-76
2021/01/11 09:16:32;;;;;;;18.58;11.05;;;;;;;;;;5093214;28;20028;-75
2021/01/11 09:19:17;;;;;;;16.48;10.27;;;;;;;;;;5093930;28;20107;-76
2021/01/11 09:21:43;;;;;;;20.90;12.27;;;;;;;;;;5094167;28;20047;-76
2021/01/11 09:24:10;;;;;;;21.33;12.15;;;;;;;;;;5094032;28;20040;-75
2021/01/11 09:26:36;;;;;;;17.65;10.45;;;;;;;;;;5092532;28;20501;-75
2021/01/11 09:29:03;;;;;;;14.20;9.35;;;;;;;;;;5093985;28;20028;-75
2021/01/11 09:31:28;;;;;;;17.48;9.85;;;;;;;;;;5093507;28;20040;-76
2021/01/11 09:33:54;;;;;;;14.23;9.23;;;;;;;;;;5093087;28;20024;-74
2021/01/11 09:36:20;;;;;;;13.38;8.75;;;;;;;;;;5093914;28;20785;-73
2021/01/11 09:38:47;;;;;;;12.57;8.27;;;;;;;;;;5092457;28;20544;-74
2021/01/11 09:41:12;;;;;;;12.40;8.05;;;;;;;;;;5094157;28;20123;-74
2021/01/11 09:43:38;;;;;;;14.20;8.52;;;;;;;;;;5092851;28;20134;-74
2021/01/11 09:46:03;;;;;;;15.00;9.15;;;;;;;;;;5093370;28;20044;-75
2021/01/11 09:48:28;;;;;;;17.80;8.93;;;;;;;;;;5094404;28;20036;-75
2021/01/11 09:50:54;;;;;;;12.05;8.05;;;;;;;;;;5093211;28;20040;-75
2021/01/11 09:53:19;;;;;;;12.82;8.88;;;;;;;;;;5093710;28;20472;-74
2021/01/11 09:55:45;;;;;;;13.18;8.77;;;;;;;;;;5093312;28;20063;-75
2021/01/11 09:58:15;;;;;;;14.40;8.60;;;;;;;;;;5092899;28;20064;-75
2021/01/11 10:00:40;;;;;;;13.68;8.93;;;;;;;;;;5091565;28;20043;-74
2021/01/11 10:03:06;;;;;;;15.63;9.43;;;;;;;;;;5093134;28;20032;-74
2021/01/11 10:05:31;;;;;;;14.20;9.20;;;;;;;;;;5093236;28;20125;-74
2021/01/11 10:07:57;;;;;;;14.18;9.13;;;;;;;;;;5093511;28;20351;-73
2021/01/11 10:10:22;;;;;;;15.00;8.52;;;;;;;;;;5093397;28;20046;-73
2021/01/11 10:12:48;;;;;;;11.25;8.30;;;;;;;;;;5093300;28;20035;-73
2021/01/11 10:15:13;;;;;;;15.85;9.15;;;;;;;;;;5093520;28;20031;-74
2021/01/11 10:17:39;;;;;;;14.20;8.88;;;;;;;;;;5093443;28;20040;-75
2021/01/11 10:20:07;;;;;;;14.57;9.20;;;;;;;;;;5092083;28;20036;-74
2021/01/11 10:22:32;;;;;;;12.85;8.52;;;;;;;;;;5093564;28;20044;-74
2021/01/11 10:24:58;;;;;;;12.48;8.93;;;;;;;;;;5093346;28;20089;-74
2021/01/11 10:27:23;;;;;;;14.80;8.57;;;;;;;;;;5093146;28;20032;-74
2021/01/11 10:29:48;;;;;;;13.02;8.00;;;;;;;;;;5093428;28;20371;-76
2021/01/11 10:32:14;;;;;;;11.70;8.68;;;;;;;;;;5093459;28;20044;-75
2021/01/11 10:34:39;;;;;;;14.02;8.13;;;;;;;;;;5093277;28;20408;-75
2021/01/11 10:37:04;;;;;;;12.77;7.40;;;;;;;;;;5093402;28;20430;-75
2021/01/11 10:39:30;;;;;;;12.73;8.38;;;;;;;;;;5093272;28;20043;-75
2021/01/11 10:41:57;;;;;;;12.90;7.25;;;;;;;;;;5093024;28;20110;-76
2021/01/11 10:44:23;;;;;;;10.35;7.07;;;;;;;;;;5092932;28;20440;-74
2021/01/11 10:46:50;;;;;;;12.75;8.23;;;;;;;;;;5093197;28;20460;-73
2021/01/11 10:49:15;;;;;;;11.93;7.65;;;;;;;;;;5093382;28;20478;-73
2021/01/11 10:51:41;;;;;;;12.60;7.85;;;;;;;;;;5097372;28;20039;-73
2021/01/11 10:54:06;;;;;;;12.68;8.10;;;;;;;;;;5097312;28;20043;-73
2021/01/11 10:56:32;;;;;;;14.30;9.55;;;;;;;;;;5097213;28;20081;-73
2021/01/11 10:58:57;;;;;;;11.60;7.55;;;;;;;;;;5096979;28;20067;-72
2021/01/11 11:01:24;;;;;;;11.95;7.35;;;;;;;;;;5096604;28;20032;-72
2021/01/11 11:03:49;;;;;;;12.43;7.85;;;;;;;;;;5096934;28;20118;-71
2021/01/11 11:06:20;;;;;;;12.38;8.57;;;;;;;;;;5096995;28;20704;-71
2021/01/11 11:08:45;;;;;;;17.75;8.80;;;;;;;;;;5096935;28;20123;-71
2021/01/11 11:11:14;;;;;;;15.55;9.27;;;;;;;;;;5095883;28;20173;-74
2021/01/11 11:13:40;;;;;;;12.50;8.98;;;;;;;;;;5095744;28;20028;-76
2021/01/11 11:16:07;;;;;;;13.10;8.60;;;;;;;;;;5096663;28;20024;-75
2021/01/11 11:18:36;;;;;;;12.00;7.88;;;;;;;;;;5096582;28;20504;-74
2021/01/11 11:21:05;;;;;;;13.40;8.27;;;;;;;;;;5095402;28;20031;-75
2021/01/11 11:23:31;;;;;;;14.80;9.23;;;;;;;;;;5096768;28;20040;-75
2021/01/11 11:25:56;;;;;;;13.02;9.00;;;;;;;;;;5096612;28;20358;-75
2021/01/11 11:28:22;;;;;;;13.70;9.38;;;;;;;;;;5096217;28;20076;-75
2021/01/11 11:30:47;;;;;;;13.30;8.75;;;;;;;;;;5096138;28;20043;-75
2021/01/11 11:33:12;;;;;;;12.27;8.05;;;;;;;;;;5096115;28;20074;-74
2021/01/11 11:35:41;;;;;;;17.48;9.57;;;;;;;;;;5095793;28;20028;-75
2021/01/11 11:38:07;;;;;;;11.93;8.48;;;;;;;;;;5095809;28;20032;-75
2021/01/11 11:40:32;;;;;;;13.15;8.85;;;;;;;;;;5096247;28;20035;-74
2021/01/11 11:42:57;;;;;;;14.27;8.45;;;;;;;;;;5096017;28;20085;-75
2021/01/11 11:45:22;;;;;;;13.18;9.05;;;;;;;;;;5095646;28;20055;-75
2021/01/11 11:47:48;;;;;;;12.57;8.63;;;;;;;;;;5096004;28;20474;-75
2021/01/11 11:50:15;;;;;;;13.45;8.90;;;;;;;;;;5096192;28;20047;-75
2021/01/11 11:52:41;;;;;;;13.80;8.27;;;;;;;;;;5094889;28;20036;-75
2021/01/11 11:55:10;;;;;;;13.48;8.43;;;;;;;;;;5094696;28;20073;-75
2021/01/11 11:57:39;;;;;;;14.05;8.60;;;;;;;;;;5095741;28;20024;-75
2021/01/11 12:00:05;;;;;;;13.48;8.32;;;;;;;;;;5094568;28;20035;-75
2021/01/11 12:02:32;;;;;;;12.50;7.75;;;;;;;;;;5094541;28;20379;-75
2021/01/11 12:04:57;;;;;;;15.73;7.68;;;;;;;;;;5095864;28;20114;-75
2021/01/11 12:07:24;;;;;;;14.75;7.57;;;;;;;;;;5095540;28;20044;-75
2021/01/11 12:09:51;;;;;;;12.00;8.05;;;;;;;;;;5095741;28;20074;-75
2021/01/11 12:12:17;;;;;;;16.10;9.93;;;;;;;;;;5095349;28;20036;-75
2021/01/11 12:14:43;;;;;;;11.65;7.32;;;;;;;;;;5095181;28;20107;-75
2021/01/11 12:17:09;;;;;;;17.67;8.30;;;;;;;;;;5095620;28;20059;-75
2021/01/11 12:19:34;;;;;;;10.95;7.88;;;;;;;;;;5095565;28;20429;-75
2021/01/11 12:21:59;;;;;;;13.32;7.03;;;;;;;;;;5095506;28;20044;-75
2021/01/11 12:24:25;;;;;;;12.55;7.72;;;;;;;;;;5095606;28;20538;-75
2021/01/11 12:26:50;;;;;;;14.75;8.13;;;;;;;;;;5095441;28;20107;-75
2021/01/11 12:29:17;;;;;;;10.77;7.32;;;;;;;;;;5094915;28;20075;-75
2021/01/11 12:31:44;;;;;;;15.27;7.53;;;;;;;;;;5095307;28;20042;-75
2021/01/11 12:34:10;;;;;;;11.30;7.65;;;;;;;;;;5093925;28;20035;-75
2021/01/11 12:36:37;;;;;;;13.27;8.32;;;;;;;;;;5095207;28;20039;-74
2021/01/11 12:39:10;;;;;;;11.80;7.10;;;;;;;;;;5093884;28;20032;-75
2021/01/11 12:41:37;;;;;;;11.02;6.30;;;;;;;;;;5095005;28;20402;-75
2021/01/11 12:44:07;;;;;;;10.95;7.32;;;;;;;;;;5094619;28;20478;-75
2021/01/11 12:46:33;;;;;;;12.57;6.90;;;;;;;;;;5095069;28;20496;-75
2021/01/11 12:48:58;;;;;;;10.55;6.30;;;;;;;;;;5094794;28;20064;-76
2021/01/11 12:51:25;;;;;;;10.10;6.20;;;;;;;;;;5094764;28;20035;-77
2021/01/11 12:53:53;;;;;;;8.95;5.80;;;;;;;;;;5096431;28;20040;-77
2021/01/11 12:56:25;;;;;;;13.60;6.72;;;;;;;;;;5095213;28;20085;-76
2021/01/11 12:58:53;;;;;;;8.13;5.57;;;;;;;;;;5094140;28;20469;-76
2021/01/11 13:01:20;;;;;;;9.98;5.93;;;;;;;;;;5095290;28;20089;-77
2021/01/11 13:03:47;;;;;;;11.30;6.47;;;;;;;;;;5094697;28;20081;-74
2021/01/11 13:06:26;;;;;;;9.52;5.70;;;;;;;;;;5094671;28;20066;-75
2021/01/11 13:08:51;;;;;;;8.77;5.68;;;;;;;;;;5094324;28;20032;-74
2021/01/11 13:11:18;;;;;;;17.67;6.85;;;;;;;;;;5094476;28;20496;-73
2021/01/11 13:13:45;;;;;;;11.30;6.93;;;;;;;;;;5093704;28;20028;-74
2021/01/11 13:16:12;;;;;;;11.55;6.38;;;;;;;;;;5094520;28;20036;-74
2021/01/11 13:18:37;;;;;;;9.82;6.65;;;;;;;;;;5094344;28;20028;-74
2021/01/11 13:21:03;;;;;;;9.93;6.07;;;;;;;;;;5093104;28;20463;-74
2021/01/11 13:23:29;;;;;;;9.13;6.43;;;;;;;;;;5093012;28;20059;-73
2021/01/11 13:25:54;;;;;;;11.02;6.80;;;;;;;;;;5094185;28;20133;-74
2021/01/11 13:28:19;;;;;;;12.02;6.70;;;;;;;;;;5093857;28;20035;-73
2021/01/11 13:30:45;;;;;;;12.80;6.43;;;;;;;;;;5094234;28;20024;-74
2021/01/11 13:33:10;;;;;;;9.10;6.05;;;;;;;;;;5094288;28;20481;-74
2021/01/11 13:35:36;;;;;;;10.25;6.88;;;;;;;;;;5092865;28;20161;-74
2021/01/11 13:38:02;;;;;;;10.90;6.65;;;;;;;;;;5093672;28;20157;-74
2021/01/11 13:40:27;;;;;;;11.60;6.65;;;;;;;;;;5093825;28;20480;-74
2021/01/11 13:42:52;;;;;;;9.02;5.78;;;;;;;;;;5092503;28;20043;-74
2021/01/11 13:45:18;;;;;;;10.35;5.55;;;;;;;;;;5092603;28;20040;-74
2021/01/11 13:47:48;;;;;;;9.70;6.30;;;;;;;;;;5093951;28;20036;-74
2021/01/11 13:50:17;;;;;;;10.48;6.22;;;;;;;;;;5093816;28;20092;-74
2021/01/11 13:52:45;;;;;;;8.90;5.70;;;;;;;;;;5092720;28;20117;-74
2021/01/11 13:55:10;;;;;;;10.13;5.20;;;;;;;;;;5093569;28;20043;-74
2021/01/11 13:57:35;;;;;;;10.73;6.20;;;;;;;;;;5093446;28;20122;-75
2021/01/11 14:00:09;;;;;;;8.23;5.25;;;;;;;;;;5093905;28;20046;-75
2021/01/11 14:02:34;;;;;;;10.80;5.85;;;;;;;;;;5094079;28;20075;-75
2021/01/11 14:05:00;;;;;;;7.25;4.63;;;;;;;;;;5093822;28;20043;-74
2021/01/11 14:07:30;;;;;;;12.50;5.20;;;;;;;;;;5093732;28;20101;-75
2021/01/11 14:09:56;;;;;;;9.70;5.43;;;;;;;;;;5092437;28;20036;-75
2021/01/11 14:12:21;;;;;;;8.95;6.05;;;;;;;;;;5093670;28;20080;-74
2021/01/11 14:14:47;;;;;;;10.02;5.30;;;;;;;;;;5093400;28;20446;-75
2021/01/11 14:17:13;;;;;;;8.95;4.88;;;;;;;;;;5093868;28;20039;-75
2021/01/11 14:19:38;;;;;;;8.77;5.57;;;;;;;;;;5092011;28;20040;-74
2021/01/11 14:22:04;;;;;;;9.73;5.45;;;;;;;;;;5093608;28;20042;-74
2021/01/11 14:24:38;;;;;;;8.00;5.25;;;;;;;;;;5092809;28;20066;-74
2021/01/11 14:27:12;;;;;;;10.07;5.40;;;;;;;;;;5092201;28;20537;-74
2021/01/11 14:29:40;;;;;;;8.45;5.00;;;;;;;;;;5092106;28;20039;-74
2021/01/11 14:32:06;;;;;;;9.52;5.47;;;;;;;;;;5093118;28;20470;-75
2021/01/11 14:34:33;;;;;;;10.32;5.93;;;;;;;;;;5093517;28;20036;-75